Salida, CO

10:22 PM MDT on September 01, 2014 (GMT -0600)
Salida | Change Station
CLOSE
Current Station
Airport
Location: Salida,
Elevation: 7523 ft
Nearby Weather Stations

Elev 7523 ft 38.54 °N, 106.05 °W | Updated 7 minutes ago

Clear
Clear
59 °F
Feels Like 59 °F
N
8
Wind Variable Wind from WSW

Today
High -- | Low -- °F
--% Chance of Precip.
Yesterday
High -- | Low -- °F
Precip. -- in
6:33 AM 7:34 PM
Waxing Crescent, 47% visible
Pressure 30.32 in
Visibility 10.0 miles
Clouds Clear
Dew Point 32 °F
Humidity 36%
Rainfall 0.00 in
Snow Depth Not available.
UV 0 out of 12
Pollen 9.80 out of 12
Air Quality Not available.
Flu Activity Not available.
METAR KANK 020415Z AUTO 25007KT 10SM CLR 15/00 A3032 RMK AO1 T01520002

More Conditions Fewer Conditions

Pressure 30.32 in
Visibility 10.0 miles
Clouds Clear
Dew Point 32 °F
Humidity 36%
Rainfall 0.00 in
Snow Depth Not available.
UV 0 out of 12
Pollen 9.80 out of 12
Air Quality Not available.
Flu Activity Not available.
METAR KANK 020415Z AUTO 25007KT 10SM CLR 15/00 A3032 RMK AO1 T01520002

More Conditions Fewer Conditions

10-Day Weather Forecast

Almanac

Astronomy

Sep. 01, 2014 Rise Set
Actual Time 6:33 AM MDT 7:34 PM MDT
Civil Twilight 6:06 AM MDT 8:01 PM MDT
Nautical Twilight 5:34 AM MDT 8:33 PM MDT
Astronomical Twilight 5:00 AM MDT 9:06 PM MDT
Moon 1:17 PM MDT (9/1) 11:42 PM MDT (9/1)
Length of Visible Light 13h 54m
Length of Day
13h 00m
Tomorrow will be 2m 25s shorter.
Waxing Crescent, 47% of the Moon is Illuminated
Sep 2
Waxing Crescent
Sep 2
First Quarter
Sep 8
Full
Sep 15
Last Quarter
Sep 24
New

Today's Extremes

State Highs State Lows

Community

WunderPhotos

Upload Photos

1,749,560 photos uploaded!

WunderBlogs® & News

Nearby

Snow Depth

Station Depth Elevation
Rough And Tumble 1 in 10360 ft
Independence Pass 188 in 10600 ft
South Colony 0 in 10800 ft
Butte 0 in 10160 ft
Hoosier Pass 0 in 11400 ft

Earthquake Activity

City Distance Mag. Time & Date
Trinidad, Colorado 118 miles 2.7 4:20 AM MDT
2014-08-31
Minimum magnitude displayed is 2.5.

Coastal Water Temperatures

Place Temperature
No Stations Reporting

Nearby Weather Stations